createdAt,value
2019-05-29T00:00:54.318Z,0.00
2019-05-29T00:01:54.300Z,0.00
2019-05-29T00:02:54.296Z,0.00
2019-05-29T00:03:54.291Z,0.00
2019-05-29T00:04:54.289Z,0.00
2019-05-29T00:05:54.281Z,0.00
2019-05-29T00:06:54.273Z,0.00
2019-05-29T00:07:54.268Z,0.00
2019-05-29T00:08:54.263Z,0.00
2019-05-29T00:09:54.293Z,0.00
2019-05-29T00:10:54.253Z,0.00
2019-05-29T00:11:54.247Z,0.00
2019-05-29T00:12:54.241Z,0.00
2019-05-29T00:13:54.235Z,0.00
2019-05-29T00:14:54.231Z,0.00
2019-05-29T00:15:54.224Z,0.00
2019-05-29T00:16:54.223Z,0.00
2019-05-29T00:17:54.211Z,0.00
2019-05-29T00:18:55.119Z,0.00
2019-05-29T00:19:54.194Z,0.00
2019-05-29T00:20:54.197Z,0.00
2019-05-29T00:21:54.191Z,0.00
2019-05-29T00:22:54.181Z,0.00
2019-05-29T00:23:54.178Z,0.00
2019-05-29T00:24:54.171Z,0.00
2019-05-29T00:25:54.168Z,0.00
2019-05-29T00:26:54.163Z,0.00
2019-05-29T00:27:54.154Z,0.00
2019-05-29T00:28:54.146Z,0.00
2019-05-29T00:29:54.143Z,0.00
2019-05-29T00:30:54.136Z,0.00
2019-05-29T00:31:54.132Z,0.00
2019-05-29T00:32:54.131Z,0.00
2019-05-29T00:33:54.121Z,0.00
2019-05-29T00:34:54.110Z,0.00
2019-05-29T00:35:54.113Z,0.00
2019-05-29T00:36:54.098Z,0.00
2019-05-29T00:37:54.099Z,0.00
2019-05-29T00:38:54.089Z,0.00
2019-05-29T00:39:54.082Z,0.00
2019-05-29T00:40:54.077Z,0.00
2019-05-29T00:41:54.071Z,0.00
2019-05-29T00:42:54.066Z,0.00
2019-05-29T00:43:54.062Z,0.00
2019-05-29T00:44:54.054Z,0.00
2019-05-29T00:45:54.049Z,0.00
2019-05-29T00:46:54.042Z,0.00
2019-05-29T00:47:54.039Z,0.00
2019-05-29T00:48:54.032Z,0.00
2019-05-29T00:49:54.028Z,0.00
2019-05-29T00:50:54.016Z,0.00
2019-05-29T00:51:54.013Z,0.00
2019-05-29T00:52:54.008Z,0.00
2019-05-29T00:53:54.002Z,0.00
2019-05-29T00:54:53.993Z,0.00
2019-05-29T00:55:53.989Z,0.00
2019-05-29T00:56:53.982Z,0.00
2019-05-29T00:57:53.979Z,0.00
2019-05-29T00:58:53.973Z,0.00
2019-05-29T00:59:53.963Z,0.00
2019-05-29T01:00:53.965Z,0.00
2019-05-29T01:01:53.956Z,0.00
2019-05-29T01:02:53.958Z,0.00
2019-05-29T01:03:53.943Z,0.00
2019-05-29T01:04:53.938Z,0.00
2019-05-29T01:05:53.930Z,0.00
2019-05-29T01:06:53.925Z,0.00
2019-05-29T01:07:53.919Z,0.00
2019-05-29T01:08:53.911Z,0.00
2019-05-29T01:09:53.904Z,0.00
2019-05-29T01:10:53.899Z,0.00
2019-05-29T01:11:53.895Z,0.00
2019-05-29T01:12:53.901Z,0.00
2019-05-29T01:13:53.881Z,0.00
2019-05-29T01:14:53.880Z,0.00
2019-05-29T01:15:53.871Z,0.00
2019-05-29T01:16:53.865Z,0.00
2019-05-29T01:17:53.855Z,0.00
2019-05-29T01:18:53.851Z,0.00
2019-05-29T01:19:53.846Z,0.00
2019-05-29T01:20:53.843Z,0.00
2019-05-29T01:21:53.837Z,0.00
2019-05-29T01:22:53.828Z,0.00
2019-05-29T01:23:53.819Z,0.00
2019-05-29T01:24:53.824Z,0.00
2019-05-29T01:25:53.810Z,0.00
2019-05-29T01:26:53.802Z,0.00
2019-05-29T01:27:53.798Z,0.00
2019-05-29T01:28:53.791Z,0.00
2019-05-29T01:29:53.784Z,0.00
2019-05-29T01:30:53.782Z,0.00
2019-05-29T01:31:53.771Z,0.00
2019-05-29T01:32:53.780Z,0.00
2019-05-29T01:33:53.761Z,0.00
2019-05-29T01:34:53.754Z,0.00
2019-05-29T01:35:53.750Z,0.00
2019-05-29T01:36:53.742Z,0.00
2019-05-29T01:37:53.736Z,0.00
2019-05-29T01:38:53.726Z,0.00
2019-05-29T01:39:53.722Z,0.00
2019-05-29T01:40:53.715Z,0.00
2019-05-29T01:41:53.709Z,0.00
2019-05-29T01:42:53.703Z,0.00
2019-05-29T01:43:53.700Z,0.00
2019-05-29T01:45:07.144Z,0.00
2019-05-29T01:45:53.685Z,0.00
2019-05-29T01:46:53.677Z,0.00
2019-05-29T01:47:53.672Z,0.00
2019-05-29T01:48:53.668Z,0.00
2019-05-29T01:49:53.655Z,0.00
2019-05-29T01:50:53.652Z,0.00
2019-05-29T01:51:53.646Z,0.00
2019-05-29T01:52:53.639Z,0.00
2019-05-29T01:53:53.630Z,0.00
2019-05-29T01:54:53.628Z,0.00
2019-05-29T01:55:53.621Z,0.00
2019-05-29T01:56:53.613Z,0.00
2019-05-29T01:57:53.608Z,0.00
2019-05-29T01:58:53.607Z,0.00
2019-05-29T01:59:53.596Z,0.00
2019-05-29T02:00:53.591Z,0.00
2019-05-29T02:01:53.585Z,0.00
2019-05-29T02:02:53.575Z,0.00
2019-05-29T02:03:53.584Z,0.00
2019-05-29T02:04:53.564Z,0.00
2019-05-29T02:05:53.559Z,0.00
2019-05-29T02:06:53.663Z,0.00
2019-05-29T02:07:53.546Z,0.00
2019-05-29T02:08:53.540Z,0.00
2019-05-29T02:09:53.532Z,0.00
2019-05-29T02:10:53.531Z,0.00
2019-05-29T02:11:53.519Z,4.00
2019-05-29T02:12:53.511Z,4.00
2019-05-29T02:13:53.508Z,4.00
2019-05-29T02:14:53.505Z,0.00
2019-05-29T02:15:53.495Z,4.00
2019-05-29T02:16:53.487Z,4.00
2019-05-29T02:17:53.480Z,4.00
2019-05-29T02:18:53.477Z,0.00
2019-05-29T02:19:53.469Z,4.00
2019-05-29T02:20:53.462Z,4.00
2019-05-29T02:21:53.460Z,8.00
2019-05-29T02:22:53.450Z,4.00
2019-05-29T02:23:53.443Z,8.00
2019-05-29T02:24:53.437Z,8.00
2019-05-29T02:25:53.430Z,8.00
2019-05-29T02:26:53.428Z,8.00
2019-05-29T02:27:53.415Z,8.00
2019-05-29T02:28:53.410Z,8.00
2019-05-29T02:29:53.404Z,12.00
2019-05-29T02:30:53.409Z,12.00
2019-05-29T02:31:53.394Z,12.00
2019-05-29T02:32:53.410Z,16.00
2019-05-29T02:33:53.380Z,16.00
2019-05-29T02:34:53.375Z,20.00
2019-05-29T02:35:53.380Z,16.00
2019-05-29T02:36:53.362Z,20.00
2019-05-29T02:37:53.354Z,20.00
2019-05-29T02:38:53.346Z,24.00
2019-05-29T02:39:53.347Z,28.00
2019-05-29T02:40:53.336Z,28.00
2019-05-29T02:41:53.341Z,32.00
2019-05-29T02:42:53.323Z,32.00
2019-05-29T02:43:53.317Z,40.00
2019-05-29T02:44:53.311Z,40.00
2019-05-29T02:45:55.020Z,44.00
2019-05-29T02:46:53.295Z,52.00
2019-05-29T02:47:53.302Z,56.00
2019-05-29T02:48:53.285Z,60.00
2019-05-29T02:49:53.279Z,64.00
2019-05-29T02:50:53.272Z,72.00
2019-05-29T02:51:53.278Z,72.00
2019-05-29T02:52:53.260Z,76.00
2019-05-29T02:53:53.250Z,76.00
2019-05-29T02:54:53.258Z,84.00
2019-05-29T02:55:53.252Z,84.00
2019-05-29T02:56:53.253Z,92.00
2019-05-29T02:57:53.227Z,96.00
2019-05-29T02:58:53.222Z,100.00
2019-05-29T02:59:53.224Z,108.00
2019-05-29T03:00:53.218Z,120.00
2019-05-29T03:01:53.199Z,128.00
2019-05-29T03:02:53.198Z,140.00
2019-05-29T03:03:53.191Z,152.00
2019-05-29T03:04:53.183Z,172.00
2019-05-29T03:05:53.179Z,192.00
2019-05-29T03:06:53.174Z,208.00
2019-05-29T03:07:53.166Z,224.00
2019-05-29T03:08:53.159Z,232.00
2019-05-29T03:09:53.153Z,240.00
2019-05-29T03:10:53.148Z,248.00
2019-05-29T03:11:53.141Z,256.00
2019-05-29T03:12:53.134Z,260.00
2019-05-29T03:13:53.134Z,268.00
2019-05-29T03:14:53.130Z,272.00
2019-05-29T03:16:08.590Z,280.00
2019-05-29T03:16:53.108Z,288.00
2019-05-29T03:17:53.100Z,296.00
2019-05-29T03:18:53.095Z,304.00
2019-05-29T03:19:53.091Z,312.00
2019-05-29T03:20:53.081Z,316.00
2019-05-29T03:21:53.078Z,332.00
2019-05-29T03:22:53.070Z,348.00
2019-05-29T03:23:53.064Z,356.00
2019-05-29T03:24:53.058Z,360.00
2019-05-29T03:25:53.058Z,368.00
2019-05-29T03:26:53.047Z,384.00
2019-05-29T03:27:53.038Z,400.00
2019-05-29T03:28:53.043Z,416.00
2019-05-29T03:29:53.026Z,436.00
2019-05-29T03:30:53.024Z,452.00
2019-05-29T03:31:53.013Z,464.00
2019-05-29T03:32:53.007Z,484.00
2019-05-29T03:33:53.006Z,516.00
2019-05-29T03:34:52.997Z,552.00
2019-05-29T03:35:52.998Z,588.00
2019-05-29T03:36:52.987Z,624.00
2019-05-29T03:37:52.977Z,676.00
2019-05-29T03:38:52.969Z,744.00
2019-05-29T03:39:52.964Z,732.00
2019-05-29T03:40:52.958Z,772.00
2019-05-29T03:41:52.951Z,780.00
2019-05-29T03:42:52.948Z,792.00
2019-05-29T03:43:52.936Z,768.00
2019-05-29T03:44:52.931Z,712.00
2019-05-29T03:45:52.926Z,652.00
2019-05-29T03:46:52.926Z,620.00
2019-05-29T03:47:52.912Z,616.00
2019-05-29T03:48:52.910Z,648.00
2019-05-29T03:49:52.899Z,696.00
2019-05-29T03:50:52.893Z,740.00
2019-05-29T03:51:52.886Z,768.00
2019-05-29T03:52:52.882Z,772.00
2019-05-29T03:53:52.875Z,744.00
2019-05-29T03:54:52.865Z,716.00
2019-05-29T03:55:52.875Z,688.00
2019-05-29T03:56:52.857Z,672.00
2019-05-29T03:57:52.850Z,664.00
2019-05-29T03:58:52.840Z,692.00
2019-05-29T03:59:52.847Z,728.00
2019-05-29T04:00:52.830Z,720.00
2019-05-29T04:01:52.831Z,740.00
2019-05-29T04:02:52.821Z,772.00
2019-05-29T04:03:52.813Z,812.00
2019-05-29T04:04:52.807Z,848.00
2019-05-29T04:05:52.802Z,880.00
2019-05-29T04:06:52.792Z,888.00
2019-05-29T04:07:52.788Z,896.00
2019-05-29T04:08:52.780Z,900.00
2019-05-29T04:09:52.775Z,916.00
2019-05-29T04:10:52.769Z,932.00
2019-05-29T04:11:52.761Z,952.00
2019-05-29T04:12:52.757Z,980.00
2019-05-29T04:13:52.750Z,1016.00
2019-05-29T04:14:52.741Z,1068.00
2019-05-29T04:15:52.751Z,1140.00
2019-05-29T04:16:59.847Z,1216.00
2019-05-29T04:17:52.731Z,1308.00
2019-05-29T04:18:52.716Z,1420.00
2019-05-29T04:19:52.725Z,1528.00
2019-05-29T04:20:52.706Z,1632.00
2019-05-29T04:21:52.706Z,1732.00
2019-05-29T04:22:52.690Z,1836.00
2019-05-29T04:23:52.688Z,1928.00
2019-05-29T04:24:52.676Z,1992.00
2019-05-29T04:25:52.684Z,2056.00
2019-05-29T04:26:52.678Z,2128.00
2019-05-29T04:27:52.665Z,2196.00
2019-05-29T04:28:52.655Z,2268.00
2019-05-29T04:29:52.651Z,2296.00
2019-05-29T04:30:52.653Z,2276.00
2019-05-29T04:31:52.635Z,2256.00
2019-05-29T04:32:52.636Z,2320.00
2019-05-29T04:33:52.625Z,2376.00
2019-05-29T04:34:52.618Z,2392.00
2019-05-29T04:35:52.613Z,2420.00
2019-05-29T04:36:52.605Z,2504.00
2019-05-29T04:37:52.602Z,2656.00
2019-05-29T04:38:52.605Z,2796.00
2019-05-29T04:39:52.589Z,2900.00
2019-05-29T04:40:52.582Z,2956.00
2019-05-29T04:41:52.575Z,2940.00
2019-05-29T04:42:52.570Z,2952.00
2019-05-29T04:43:56.743Z,2968.00
2019-05-29T04:44:52.565Z,2984.00
2019-05-29T04:45:52.552Z,3004.00
2019-05-29T04:47:09.447Z,3052.00
2019-05-29T04:47:52.538Z,3136.00
2019-05-29T04:48:52.532Z,3256.00
2019-05-29T04:49:52.528Z,3444.00
2019-05-29T04:50:52.520Z,3688.00
2019-05-29T04:51:52.518Z,3948.00
2019-05-29T04:52:52.510Z,4208.00
2019-05-29T04:53:52.503Z,4360.00
2019-05-29T04:54:52.499Z,4388.00
2019-05-29T04:55:52.489Z,4360.00
2019-05-29T04:56:52.488Z,4380.00
2019-05-29T04:57:52.479Z,4420.00
2019-05-29T04:58:52.475Z,4504.00
2019-05-29T04:59:52.468Z,4620.00
2019-05-29T05:00:59.070Z,4732.00
2019-05-29T05:01:52.455Z,4864.00
2019-05-29T05:02:52.451Z,5008.00
2019-05-29T05:03:52.445Z,5340.00
2019-05-29T05:04:52.880Z,5664.00
2019-05-29T05:05:52.437Z,5840.00
2019-05-29T05:06:52.429Z,6016.00
2019-05-29T05:07:52.420Z,5972.00
2019-05-29T05:08:52.418Z,5760.00
2019-05-29T05:09:52.414Z,5948.00
2019-05-29T05:10:52.407Z,6716.00
2019-05-29T05:11:52.400Z,6908.00
2019-05-29T05:12:52.443Z,6980.00
2019-05-29T05:13:52.390Z,6100.00
2019-05-29T05:14:52.383Z,6044.00
2019-05-29T05:15:52.380Z,5944.00
2019-05-29T05:16:52.372Z,5740.00
2019-05-29T05:17:52.368Z,5676.00
2019-05-29T05:18:52.364Z,5816.00
2019-05-29T05:19:52.364Z,6288.00
2019-05-29T05:20:52.353Z,6980.00
2019-05-29T05:21:52.346Z,7712.00
2019-05-29T05:22:52.343Z,8280.00
2019-05-29T05:23:52.336Z,7992.00
2019-05-29T05:24:52.329Z,8040.00
2019-05-29T05:25:52.325Z,7608.00
2019-05-29T05:26:52.319Z,7856.00
2019-05-29T05:27:52.315Z,8616.00
2019-05-29T05:28:52.345Z,9084.00
2019-05-29T05:29:52.308Z,9460.00
2019-05-29T05:30:52.298Z,9648.00
2019-05-29T05:31:52.296Z,9692.00
2019-05-29T05:32:52.289Z,9188.00
2019-05-29T05:33:52.285Z,8676.00
2019-05-29T05:34:52.280Z,7412.00
2019-05-29T05:35:52.274Z,6540.00
2019-05-29T05:36:52.274Z,6624.00
2019-05-29T05:37:52.267Z,6824.00
2019-05-29T05:38:52.266Z,6952.00
2019-05-29T05:39:52.259Z,8136.00
2019-05-29T05:40:52.257Z,7504.00
2019-05-29T05:41:52.250Z,8592.00
2019-05-29T05:42:52.247Z,9496.00
2019-05-29T05:43:52.242Z,9644.00
2019-05-29T05:44:52.239Z,9780.00
2019-05-29T05:45:52.231Z,9888.00
2019-05-29T05:46:52.229Z,10964.00
2019-05-29T05:47:57.251Z,11648.00
2019-05-29T05:48:52.223Z,12020.00
2019-05-29T05:49:52.217Z,12820.00
2019-05-29T05:50:52.214Z,13084.00
2019-05-29T05:51:52.210Z,13244.00
2019-05-29T05:52:52.217Z,13676.00
2019-05-29T05:53:52.205Z,13576.00
2019-05-29T05:54:52.208Z,13168.00
2019-05-29T05:55:52.195Z,12372.00
2019-05-29T05:56:53.675Z,12372.00
2019-05-29T05:57:52.186Z,11904.00
2019-05-29T05:58:52.184Z,11940.00
2019-05-29T05:59:52.185Z,11608.00
2019-05-29T06:00:52.183Z,11588.00
2019-05-29T06:01:52.179Z,11444.00
2019-05-29T06:02:52.356Z,11540.00
2019-05-29T06:03:52.172Z,11420.00
2019-05-29T06:04:52.168Z,11512.00
2019-05-29T06:05:52.167Z,11296.00
2019-05-29T06:06:52.161Z,10760.00
2019-05-29T06:07:52.157Z,10520.00
2019-05-29T06:08:52.158Z,10296.00
2019-05-29T06:09:52.150Z,9832.00
2019-05-29T06:10:52.153Z,9684.00
2019-05-29T06:11:52.145Z,9764.00
2019-05-29T06:12:52.145Z,10272.00
2019-05-29T06:13:52.141Z,12508.00
2019-05-29T06:14:52.136Z,14036.00
2019-05-29T06:15:52.134Z,12168.00
2019-05-29T06:16:52.132Z,14408.00
2019-05-29T06:18:16.941Z,24416.00
2019-05-29T06:18:52.124Z,24064.00
2019-05-29T06:19:52.121Z,22560.00
2019-05-29T06:20:52.116Z,32672.00
2019-05-29T06:21:52.113Z,34368.00
2019-05-29T06:22:52.113Z,36608.00
2019-05-29T06:23:52.108Z,41600.00
2019-05-29T06:24:52.104Z,43264.00
2019-05-29T06:25:52.102Z,42720.00
2019-05-29T06:26:52.098Z,43296.00
2019-05-29T06:27:52.093Z,41856.00
2019-05-29T06:28:52.094Z,42048.00
2019-05-29T06:29:52.090Z,43584.00
2019-05-29T06:30:52.093Z,44736.00
2019-05-29T06:31:52.088Z,45568.00
2019-05-29T06:32:52.084Z,45056.00
2019-05-29T06:33:52.082Z,46688.00
2019-05-29T06:34:52.081Z,48256.00
2019-05-29T06:35:52.077Z,46464.00
2019-05-29T06:36:52.080Z,44064.00
2019-05-29T06:37:52.075Z,45408.00
2019-05-29T06:38:52.073Z,48480.00
2019-05-29T06:39:52.078Z,48576.00
2019-05-29T06:40:52.072Z,47840.00
2019-05-29T06:41:52.071Z,47424.00
2019-05-29T06:42:52.068Z,47040.00
2019-05-29T06:43:52.074Z,43456.00
2019-05-29T06:44:52.088Z,43808.00
2019-05-29T06:45:52.067Z,42240.00
2019-05-29T06:46:52.068Z,43648.00
2019-05-29T06:47:52.067Z,42432.00
2019-05-29T06:48:59.314Z,41728.00
2019-05-29T06:49:52.066Z,47584.00
2019-05-29T06:50:52.723Z,49952.00
2019-05-29T06:51:52.066Z,44512.00
2019-05-29T06:52:52.064Z,50240.00
2019-05-29T06:53:52.067Z,49472.00
2019-05-29T06:54:52.063Z,46784.00
2019-05-29T06:55:53.747Z,48576.00
2019-05-29T06:56:52.069Z,52768.00
2019-05-29T06:57:52.071Z,47520.00
2019-05-29T06:58:52.063Z,44672.00
2019-05-29T06:59:52.063Z,47904.00
2019-05-29T07:00:52.066Z,47584.00
2019-05-29T07:01:52.062Z,46976.00
2019-05-29T07:02:52.066Z,46272.00
2019-05-29T07:04:10.083Z,45312.00
2019-05-29T07:04:52.067Z,45216.00
2019-05-29T07:05:52.940Z,45280.00
2019-05-29T07:06:52.071Z,49952.00
2019-05-29T07:07:52.066Z,12324.00
2019-05-29T07:08:52.073Z,50976.00
2019-05-29T07:09:52.068Z,53216.00
2019-05-29T07:10:52.068Z,56992.00
2019-05-29T07:11:52.072Z,57504.00
2019-05-29T07:12:52.068Z,54080.00
2019-05-29T07:13:52.089Z,47136.00
2019-05-29T07:14:52.070Z,52960.00
2019-05-29T07:15:52.073Z,14484.00
2019-05-29T07:16:56.018Z,14048.00
2019-05-29T07:17:52.083Z,63712.00
2019-05-29T07:19:23.955Z,58336.00
2019-05-29T07:20:02.759Z,47712.00
2019-05-29T07:20:52.075Z,56672.00
2019-05-29T07:21:52.081Z,44928.00
2019-05-29T07:22:52.076Z,55648.00
2019-05-29T07:23:52.075Z,55776.00
2019-05-29T07:24:52.078Z,53024.00
2019-05-29T07:25:52.077Z,26848.00
2019-05-29T07:26:52.077Z,7204.00
2019-05-29T07:27:52.078Z,6744.00
2019-05-29T07:29:06.746Z,6036.00
2019-05-29T07:29:52.081Z,6432.00
2019-05-29T07:31:01.074Z,10788.00
2019-05-29T07:31:52.078Z,58432.00
2019-05-29T07:32:58.576Z,58944.00
2019-05-29T07:33:52.080Z,58592.00
2019-05-29T07:35:03.288Z,57152.00
2019-05-29T07:35:52.077Z,59968.00
2019-05-29T07:36:52.079Z,60448.00
2019-05-29T07:37:52.084Z,58400.00
2019-05-29T07:39:02.446Z,65344.00
2019-05-29T07:39:52.080Z,69216.00
2019-05-29T07:40:52.081Z,65280.00
2019-05-29T07:41:52.082Z,58784.00
2019-05-29T07:42:56.295Z,53952.00
2019-05-29T07:43:52.093Z,55200.00
2019-05-29T07:44:52.082Z,63648.00
2019-05-29T07:45:52.086Z,47264.00
2019-05-29T07:46:52.088Z,20128.00
2019-05-29T07:47:52.086Z,64640.00
2019-05-29T07:48:52.090Z,14584.00
2019-05-29T07:49:52.090Z,60352.00
2019-05-29T07:51:06.249Z,78624.00
2019-05-29T07:51:52.093Z,10832.00
2019-05-29T07:52:52.296Z,9264.00
2019-05-29T07:53:52.099Z,8124.00
2019-05-29T07:54:52.123Z,27552.00
2019-05-29T07:55:52.100Z,7064.00
2019-05-29T07:56:52.100Z,6368.00
2019-05-29T07:57:52.131Z,6556.00
2019-05-29T07:59:01.782Z,7928.00
2019-05-29T07:59:52.107Z,78656.00
2019-05-29T08:01:09.996Z,76896.00
2019-05-29T08:01:52.104Z,77312.00
2019-05-29T08:02:52.104Z,73952.00
2019-05-29T08:03:52.109Z,13280.00
2019-05-29T08:04:52.110Z,11768.00
2019-05-29T08:05:53.391Z,11600.00
2019-05-29T08:06:54.499Z,9432.00
2019-05-29T08:07:52.111Z,8244.00
2019-05-29T08:08:52.111Z,7572.00
2019-05-29T08:09:52.117Z,7600.00
2019-05-29T08:10:52.115Z,7908.00
2019-05-29T08:11:52.113Z,7456.00
2019-05-29T08:12:55.608Z,7412.00
2019-05-29T08:13:52.114Z,9424.00
2019-05-29T08:14:52.141Z,30528.00
2019-05-29T08:16:02.266Z,77632.00
2019-05-29T08:16:52.126Z,80736.00
2019-05-29T08:17:52.154Z,85088.00
2019-05-29T08:18:53.184Z,83520.00
2019-05-29T08:20:02.922Z,89440.00
2019-05-29T08:20:52.116Z,90944.00
2019-05-29T08:21:52.115Z,88896.00
2019-05-29T08:22:52.113Z,81824.00
2019-05-29T08:23:52.114Z,83712.00
2019-05-29T08:24:52.119Z,18656.00
2019-05-29T08:25:52.124Z,84768.00
2019-05-29T08:26:52.122Z,87264.00
2019-05-29T08:27:52.122Z,12900.00
2019-05-29T08:28:52.124Z,87136.00
2019-05-29T08:29:52.126Z,16188.00
2019-05-29T08:30:56.145Z,16168.00
2019-05-29T08:31:52.128Z,28704.00
2019-05-29T08:32:52.168Z,8624.00
2019-05-29T08:33:52.131Z,15284.00
2019-05-29T08:34:52.133Z,42048.00
2019-05-29T08:35:59.477Z,90880.00
2019-05-29T08:37:05.896Z,102016.00
2019-05-29T08:37:52.139Z,104832.00
2019-05-29T08:38:52.141Z,11620.00
2019-05-29T08:39:52.140Z,10256.00
2019-05-29T08:40:52.142Z,10580.00
2019-05-29T08:42:17.650Z,12488.00
2019-05-29T08:42:52.161Z,11680.00
2019-05-29T08:43:52.778Z,36128.00
2019-05-29T08:44:52.158Z,8348.00
2019-05-29T08:45:52.696Z,7776.00
2019-05-29T08:47:08.434Z,8296.00
2019-05-29T08:47:52.150Z,7748.00
2019-05-29T08:48:52.401Z,7108.00
2019-05-29T08:49:54.490Z,7664.00
2019-05-29T08:50:52.151Z,87296.00
2019-05-29T08:51:52.379Z,87904.00
2019-05-29T08:52:52.380Z,64800.00
2019-05-29T08:53:54.575Z,18624.00
2019-05-29T08:54:52.346Z,9668.00
2019-05-29T08:55:52.712Z,9204.00
2019-05-29T08:56:52.543Z,8948.00
2019-05-29T08:57:52.509Z,9752.00
2019-05-29T08:58:52.570Z,10164.00
2019-05-29T08:59:52.690Z,12120.00
2019-05-29T09:00:55.101Z,10024.00
2019-05-29T09:01:53.795Z,11144.00
2019-05-29T09:02:52.825Z,11748.00
2019-05-29T09:03:53.357Z,12108.00
2019-05-29T09:04:54.498Z,11064.00
2019-05-29T09:06:07.977Z,11532.00
2019-05-29T09:06:53.365Z,10308.00
2019-05-29T09:07:54.212Z,9032.00
2019-05-29T09:08:54.575Z,8324.00
2019-05-29T09:09:53.286Z,8152.00
2019-05-29T09:10:53.920Z,8292.00
2019-05-29T09:11:53.618Z,8572.00
2019-05-29T09:13:03.663Z,8912.00
2019-05-29T09:13:52.162Z,8884.00
2019-05-29T09:14:52.168Z,9244.00
2019-05-29T09:15:52.155Z,10216.00
2019-05-29T09:16:52.269Z,11572.00
2019-05-29T09:17:52.157Z,12268.00
2019-05-29T09:18:52.155Z,13484.00
2019-05-29T09:19:52.153Z,13568.00
2019-05-29T09:21:02.884Z,12804.00
2019-05-29T09:21:52.152Z,11552.00
2019-05-29T09:22:52.150Z,11100.00
2019-05-29T09:23:52.153Z,10064.00
2019-05-29T09:24:52.152Z,8788.00
2019-05-29T09:25:52.147Z,7880.00
2019-05-29T09:26:52.150Z,7740.00
2019-05-29T09:27:52.148Z,7568.00
2019-05-29T09:28:52.144Z,7476.00
2019-05-29T09:29:52.142Z,7580.00
2019-05-29T09:30:52.142Z,7728.00
2019-05-29T09:31:52.142Z,8000.00
2019-05-29T09:32:53.158Z,8640.00
2019-05-29T09:33:52.138Z,8312.00
2019-05-29T09:34:52.177Z,8004.00
2019-05-29T09:35:52.136Z,7920.00
2019-05-29T09:36:55.472Z,8180.00
2019-05-29T09:37:52.131Z,8988.00
2019-05-29T09:38:52.144Z,9200.00
2019-05-29T09:39:52.144Z,9232.00
2019-05-29T09:40:52.962Z,8940.00
2019-05-29T09:41:52.127Z,9124.00
2019-05-29T09:42:52.126Z,9580.00
2019-05-29T09:43:59.213Z,10136.00
2019-05-29T09:44:52.122Z,10448.00
2019-05-29T09:45:52.119Z,10708.00
2019-05-29T09:46:52.122Z,10368.00
2019-05-29T09:47:52.124Z,9752.00
2019-05-29T09:48:52.119Z,9436.00
2019-05-29T09:49:52.116Z,8400.00
2019-05-29T09:50:52.112Z,6872.00
2019-05-29T09:51:52.635Z,5780.00
2019-05-29T09:52:54.447Z,5156.00
2019-05-29T09:53:52.542Z,4904.00
2019-05-29T09:54:53.465Z,5176.00
2019-05-29T09:55:53.724Z,5568.00
2019-05-29T09:56:52.465Z,5984.00
2019-05-29T09:57:53.526Z,6172.00
2019-05-29T09:58:53.684Z,6240.00
2019-05-29T09:59:53.846Z,6488.00
2019-05-29T10:01:09.532Z,6380.00
2019-05-29T10:01:54.098Z,6392.00
2019-05-29T10:02:52.814Z,6376.00
2019-05-29T10:03:53.463Z,6072.00
2019-05-29T10:04:54.303Z,5644.00
2019-05-29T10:05:54.040Z,5008.00
2019-05-29T10:06:53.171Z,4780.00
2019-05-29T10:07:53.111Z,4648.00
2019-05-29T10:08:54.113Z,4380.00
2019-05-29T10:09:53.621Z,4524.00
2019-05-29T10:10:52.093Z,4480.00
2019-05-29T10:11:52.070Z,4556.00
2019-05-29T10:12:52.070Z,5008.00
2019-05-29T10:13:52.069Z,5756.00
2019-05-29T10:14:52.148Z,6592.00
2019-05-29T10:15:52.062Z,7548.00
2019-05-29T10:16:52.063Z,8168.00
2019-05-29T10:17:52.052Z,8268.00
2019-05-29T10:18:52.053Z,9168.00
2019-05-29T10:19:52.054Z,10140.00
2019-05-29T10:20:52.046Z,10052.00
2019-05-29T10:21:52.045Z,9904.00
2019-05-29T10:22:52.041Z,8816.00
2019-05-29T10:23:52.041Z,8640.00
2019-05-29T10:24:52.040Z,7752.00
2019-05-29T10:25:52.035Z,7464.00
2019-05-29T10:26:52.035Z,6284.00
2019-05-29T10:27:52.094Z,5416.00
2019-05-29T10:29:02.914Z,5100.00
2019-05-29T10:29:53.184Z,4860.00
2019-05-29T10:30:52.801Z,4744.00
2019-05-29T10:31:53.452Z,4636.00
2019-05-29T10:32:52.891Z,4520.00
2019-05-29T10:33:52.417Z,4364.00
2019-05-29T10:34:52.653Z,4388.00
2019-05-29T10:35:55.222Z,4876.00
2019-05-29T10:36:53.606Z,5796.00
2019-05-29T10:37:52.990Z,6528.00
2019-05-29T10:38:52.679Z,6848.00
2019-05-29T10:39:52.964Z,6984.00
2019-05-29T10:41:05.322Z,7660.00
2019-05-29T10:41:52.998Z,7980.00
2019-05-29T10:42:53.401Z,7584.00
2019-05-29T10:43:53.275Z,7108.00
2019-05-29T10:44:53.028Z,6888.00
2019-05-29T10:45:52.203Z,6572.00
2019-05-29T10:46:54.143Z,6600.00
2019-05-29T10:47:52.458Z,6384.00
2019-05-29T10:48:54.237Z,6620.00
2019-05-29T10:49:51.992Z,6320.00
2019-05-29T10:50:53.667Z,5884.00
2019-05-29T10:52:09.048Z,5608.00
2019-05-29T10:52:52.211Z,5796.00
2019-05-29T10:53:54.871Z,6064.00
2019-05-29T10:54:52.466Z,6160.00
2019-05-29T10:55:52.667Z,5704.00
2019-05-29T10:56:52.954Z,5388.00
2019-05-29T10:57:53.085Z,5296.00
2019-05-29T10:58:56.443Z,5060.00
2019-05-29T10:59:52.891Z,4776.00
2019-05-29T11:00:53.214Z,4628.00
2019-05-29T11:01:52.483Z,4868.00
2019-05-29T11:02:54.713Z,6060.00
2019-05-29T11:03:52.666Z,6364.00
2019-05-29T11:04:55.064Z,6916.00
2019-05-29T11:05:51.952Z,6888.00
2019-05-29T11:06:52.466Z,6128.00
2019-05-29T11:07:52.040Z,5128.00
2019-05-29T11:08:52.091Z,4148.00
2019-05-29T11:09:52.209Z,3716.00
2019-05-29T11:10:52.152Z,3472.00
2019-05-29T11:11:53.334Z,3324.00
2019-05-29T11:12:52.645Z,3936.00
2019-05-29T11:13:52.823Z,4008.00
2019-05-29T11:14:52.872Z,4044.00
2019-05-29T11:15:52.828Z,4228.00
2019-05-29T11:16:53.140Z,4428.00
2019-05-29T11:17:53.123Z,4388.00
2019-05-29T11:18:53.172Z,4212.00
2019-05-29T11:19:51.925Z,4096.00
2019-05-29T11:20:51.924Z,4340.00
2019-05-29T11:21:51.919Z,4936.00
2019-05-29T11:22:51.916Z,5136.00
2019-05-29T11:23:51.920Z,5604.00
2019-05-29T11:24:52.348Z,5712.00
2019-05-29T11:25:52.148Z,5796.00
2019-05-29T11:26:52.513Z,6320.00
2019-05-29T11:27:53.225Z,6764.00
2019-05-29T11:28:52.378Z,7156.00
2019-05-29T11:29:53.113Z,7648.00
2019-05-29T11:30:53.562Z,7764.00
2019-05-29T11:31:53.244Z,8356.00
2019-05-29T11:32:53.033Z,8692.00
2019-05-29T11:33:53.035Z,8956.00
2019-05-29T11:34:53.651Z,9076.00
2019-05-29T11:36:00.854Z,8700.00
2019-05-29T11:36:51.992Z,8456.00
2019-05-29T11:37:52.486Z,8308.00
2019-05-29T11:38:52.571Z,7240.00
2019-05-29T11:39:52.581Z,6660.00
2019-05-29T11:41:04.665Z,5600.00
2019-05-29T11:41:52.701Z,4756.00
2019-05-29T11:42:52.817Z,4196.00
2019-05-29T11:43:52.696Z,3792.00
2019-05-29T11:44:53.290Z,3812.00
2019-05-29T11:45:53.096Z,3452.00
2019-05-29T11:46:52.173Z,3368.00
2019-05-29T11:47:53.692Z,3336.00
2019-05-29T11:48:53.054Z,3256.00
2019-05-29T11:49:53.037Z,3216.00
2019-05-29T11:50:52.115Z,3208.00
2019-05-29T11:51:53.629Z,3240.00
2019-05-29T11:52:52.335Z,3252.00
2019-05-29T11:53:51.854Z,3292.00
2019-05-29T11:54:56.000Z,3336.00
2019-05-29T11:55:52.486Z,3416.00
2019-05-29T11:56:53.610Z,3532.00
2019-05-29T11:57:51.907Z,3704.00
2019-05-29T11:58:52.769Z,3932.00
2019-05-29T11:59:51.921Z,4164.00
2019-05-29T12:00:52.863Z,4616.00
2019-05-29T12:01:54.004Z,5152.00
2019-05-29T12:02:53.622Z,5824.00
2019-05-29T12:04:16.795Z,6500.00
2019-05-29T12:04:52.998Z,6876.00
2019-05-29T12:05:53.363Z,7236.00
2019-05-29T12:06:53.095Z,7440.00
2019-05-29T12:07:53.318Z,7228.00
2019-05-29T12:08:51.825Z,6816.00
2019-05-29T12:09:51.827Z,6488.00
2019-05-29T12:10:51.821Z,5876.00
2019-05-29T12:11:51.917Z,5064.00
2019-05-29T12:12:51.817Z,5320.00
2019-05-29T12:13:51.816Z,5484.00
2019-05-29T12:15:03.444Z,5716.00
2019-05-29T12:15:51.859Z,5548.00
2019-05-29T12:16:51.835Z,4740.00
2019-05-29T12:17:57.954Z,4540.00